createdAt,value
2018-03-24T00:01:37.306Z,38.30
2018-03-24T00:04:05.757Z,37.33
2018-03-24T00:06:33.271Z,35.90
2018-03-24T00:09:01.546Z,37.73
2018-03-24T00:11:29.064Z,37.40
2018-03-24T00:13:57.332Z,36.53
2018-03-24T00:16:24.839Z,36.43
2018-03-24T00:18:52.372Z,36.40
2018-03-24T00:21:20.648Z,36.63
2018-03-24T00:23:48.930Z,37.57
2018-03-24T00:26:17.225Z,36.17
2018-03-24T00:28:44.739Z,37.97
2018-03-24T00:31:12.231Z,37.43
2018-03-24T00:33:39.739Z,36.80
2018-03-24T00:36:07.300Z,37.63
2018-03-24T00:38:34.812Z,37.73
2018-03-24T00:41:02.329Z,37.00
2018-03-24T00:43:29.839Z,36.97
2018-03-24T00:45:57.378Z,37.97
2018-03-24T00:48:24.902Z,36.60
2018-03-24T00:50:52.420Z,38.30
2018-03-24T00:53:19.920Z,38.27
2018-03-24T00:55:47.439Z,38.43
2018-03-24T00:58:14.971Z,36.80
2018-03-24T01:00:42.494Z,38.13
2018-03-24T01:03:10.071Z,39.50
2018-03-24T01:05:38.349Z,37.43
2018-03-24T01:08:06.653Z,37.90
2018-03-24T01:10:34.214Z,39.00
2018-03-24T01:13:01.870Z,39.20
2018-03-24T01:15:29.395Z,38.63
2018-03-24T01:17:57.662Z,39.70
2018-03-24T01:20:25.945Z,38.10
2018-03-24T01:22:54.222Z,39.23
2018-03-24T01:25:22.495Z,38.50
2018-03-24T01:27:50.781Z,37.33
2018-03-24T01:30:19.062Z,37.37
2018-03-24T01:32:47.339Z,36.20
2018-03-24T01:35:15.655Z,37.90
2018-03-24T01:37:43.195Z,37.07
2018-03-24T01:40:10.708Z,37.80
2018-03-24T01:42:38.200Z,38.00
2018-03-24T01:45:05.702Z,38.17
2018-03-24T01:47:33.224Z,38.27
2018-03-24T01:50:01.499Z,40.30
2018-03-24T01:52:29.014Z,37.07
2018-03-24T01:54:56.557Z,36.60
2018-03-24T01:57:24.254Z,37.97
2018-03-24T01:59:51.763Z,37.23
2018-03-24T02:02:19.278Z,37.30
2018-03-24T02:04:47.556Z,37.83
2018-03-24T02:07:15.098Z,40.23
2018-03-24T02:09:42.690Z,36.77
2018-03-24T02:12:10.196Z,40.00
2018-03-24T02:14:37.701Z,36.70
2018-03-24T02:17:05.202Z,37.97
2018-03-24T02:19:32.722Z,38.43
2018-03-24T02:22:00.228Z,37.53
2018-03-24T02:24:27.742Z,37.83
2018-03-24T02:26:55.256Z,37.77
2018-03-24T02:29:23.526Z,37.47
2018-03-24T02:31:51.019Z,38.80
2018-03-24T02:34:18.523Z,38.77
2018-03-24T02:36:46.065Z,37.03
2018-03-24T02:39:13.588Z,37.57
2018-03-24T02:41:41.086Z,38.90
2018-03-24T02:44:08.589Z,37.30
2018-03-24T02:46:36.099Z,37.50
2018-03-24T02:49:03.635Z,37.43
2018-03-24T02:51:31.194Z,38.03
2018-03-24T02:53:58.704Z,37.83
2018-03-24T02:56:27.134Z,37.53
2018-03-24T02:58:54.644Z,38.77
2018-03-24T03:01:22.931Z,39.40
2018-03-24T03:03:51.219Z,37.00
2018-03-24T03:06:19.498Z,38.00
2018-03-24T03:08:47.015Z,37.13
2018-03-24T03:11:14.516Z,38.80
2018-03-24T03:13:42.045Z,37.90
2018-03-24T03:16:09.635Z,40.10
2018-03-24T03:18:37.146Z,39.80
2018-03-24T03:21:04.779Z,38.73
2018-03-24T03:23:32.282Z,39.20
2018-03-24T03:25:59.801Z,38.93
2018-03-24T03:28:27.309Z,40.17
2018-03-24T03:31:12.505Z,38.20
2018-03-24T03:33:40.091Z,39.57
2018-03-24T03:36:07.803Z,37.40
2018-03-24T03:38:36.079Z,39.83
2018-03-24T03:41:04.372Z,39.87
2018-03-24T03:43:31.905Z,39.53
2018-03-24T03:45:59.417Z,38.60
2018-03-24T03:48:26.971Z,37.83
2018-03-24T03:50:54.471Z,37.43
2018-03-24T03:53:23.590Z,40.77
2018-03-24T03:55:51.090Z,37.73
2018-03-24T03:58:18.620Z,38.27
2018-03-24T04:00:46.126Z,38.10
2018-03-24T04:03:13.651Z,38.47
2018-03-24T04:05:41.156Z,37.87
2018-03-24T04:08:08.666Z,38.83
2018-03-24T04:10:36.187Z,37.77
2018-03-24T04:13:03.768Z,37.63
2018-03-24T04:15:31.347Z,37.20
2018-03-24T04:17:58.914Z,37.60
2018-03-24T04:20:26.533Z,37.90
2018-03-24T04:22:54.794Z,38.83
2018-03-24T04:25:22.302Z,37.30
2018-03-24T04:27:49.815Z,38.50
2018-03-24T04:30:17.319Z,38.47
2018-03-24T04:32:44.828Z,36.57
2018-03-24T04:35:13.233Z,38.20
2018-03-24T04:37:40.731Z,39.07
2018-03-24T04:40:08.263Z,36.30
2018-03-24T04:42:35.772Z,38.67
2018-03-24T04:45:03.270Z,36.93
2018-03-24T04:47:30.922Z,35.37
2018-03-24T04:49:58.467Z,36.13
2018-03-24T04:52:26.743Z,37.13
2018-03-24T04:54:55.052Z,37.10
2018-03-24T04:57:22.578Z,36.53
2018-03-24T04:59:50.107Z,38.70
2018-03-24T05:02:17.621Z,35.00
2018-03-24T05:04:45.147Z,36.23
2018-03-24T05:07:12.654Z,36.83
2018-03-24T05:09:40.200Z,37.77
2018-03-24T05:12:07.721Z,36.47
2018-03-24T05:14:35.394Z,37.43
2018-03-24T05:17:02.914Z,37.70
2018-03-24T05:19:31.316Z,36.33
2018-03-24T05:21:58.899Z,37.20
2018-03-24T05:24:26.464Z,36.93
2018-03-24T05:26:53.972Z,38.37
2018-03-24T05:29:21.486Z,37.50
2018-03-24T05:31:48.988Z,35.40
2018-03-24T05:34:16.497Z,37.53
2018-03-24T05:36:44.040Z,39.13
2018-03-24T05:39:12.309Z,36.70
2018-03-24T05:41:40.658Z,36.90
2018-03-24T05:44:08.156Z,36.10
2018-03-24T05:46:35.663Z,36.37
2018-03-24T05:49:03.173Z,36.37
2018-03-24T05:51:30.675Z,37.03
2018-03-24T05:53:58.186Z,35.73
2018-03-24T05:56:25.730Z,36.00
2018-03-24T05:58:54.011Z,35.60
2018-03-24T06:01:22.275Z,35.97
2018-03-24T06:03:49.807Z,36.00
2018-03-24T06:06:17.317Z,33.20
2018-03-24T06:08:44.832Z,35.07
2018-03-24T06:11:12.336Z,35.30
2018-03-24T06:13:39.843Z,35.47
2018-03-24T06:16:07.397Z,35.80
2018-03-24T06:18:34.887Z,35.57
2018-03-24T06:21:03.284Z,33.20
2018-03-24T06:23:30.791Z,35.60
2018-03-24T06:25:58.342Z,34.73
2018-03-24T06:28:25.839Z,33.97
2018-03-24T06:30:54.973Z,35.40
2018-03-24T06:33:22.478Z,34.17
2018-03-24T06:35:53.437Z,34.63
2018-03-24T06:38:21.730Z,33.83
2018-03-24T06:40:49.252Z,33.93
2018-03-24T06:43:16.751Z,33.63
2018-03-24T06:45:44.258Z,34.43
2018-03-24T06:48:11.762Z,33.53
2018-03-24T06:50:39.273Z,33.50
2018-03-24T06:53:06.892Z,32.67
2018-03-24T06:55:34.394Z,33.73
2018-03-24T06:58:01.910Z,32.40
2018-03-24T07:00:29.431Z,33.30
2018-03-24T07:02:57.716Z,31.87
2018-03-24T07:05:26.096Z,32.37
2018-03-24T07:07:53.618Z,33.23
2018-03-24T07:10:21.123Z,32.80
2018-03-24T07:12:48.641Z,31.57
2018-03-24T07:15:16.163Z,31.13
2018-03-24T07:17:43.659Z,28.93
2018-03-24T07:20:11.313Z,28.20
2018-03-24T07:22:38.866Z,25.10
2018-03-24T07:25:06.383Z,26.40
2018-03-24T07:27:33.893Z,24.30
2018-03-24T07:30:01.395Z,24.93
2018-03-24T07:32:28.924Z,24.13
2018-03-24T07:34:56.426Z,24.47
2018-03-24T07:37:23.939Z,24.07
2018-03-24T07:39:51.444Z,23.80
2018-03-24T07:42:18.964Z,23.80
2018-03-24T07:44:46.481Z,21.00
2018-03-24T07:47:13.992Z,22.57
2018-03-24T07:49:41.565Z,22.20
2018-03-24T07:52:09.078Z,23.07
2018-03-24T07:54:36.596Z,22.83
2018-03-24T07:57:04.104Z,22.73
2018-03-24T07:59:31.666Z,22.37
2018-03-24T08:01:59.941Z,19.87
2018-03-24T08:04:28.214Z,20.47
2018-03-24T08:06:56.491Z,21.50
2018-03-24T08:09:24.778Z,21.60
2018-03-24T08:11:53.051Z,21.77
2018-03-24T08:14:21.323Z,20.80
2018-03-24T08:16:49.787Z,23.30
2018-03-24T08:19:17.255Z,22.10
2018-03-24T08:21:45.572Z,23.13
2018-03-24T08:24:13.097Z,21.27
2018-03-24T08:26:40.622Z,20.43
2018-03-24T08:29:08.236Z,22.50
2018-03-24T08:31:35.763Z,21.97
2018-03-24T08:34:03.271Z,23.33
2018-03-24T08:36:30.784Z,25.33
2018-03-24T08:38:58.325Z,24.87
2018-03-24T08:41:25.833Z,23.40
2018-03-24T08:43:53.343Z,25.33
2018-03-24T08:46:20.863Z,25.87
2018-03-24T08:48:48.368Z,25.20
2018-03-24T08:51:15.888Z,25.70
2018-03-24T08:53:43.429Z,24.87
2018-03-24T08:56:11.058Z,26.20
2018-03-24T08:58:38.649Z,24.67
2018-03-24T09:01:06.167Z,24.77
2018-03-24T09:03:34.457Z,25.97
2018-03-24T09:06:01.996Z,25.07
2018-03-24T09:08:29.545Z,24.00
2018-03-24T09:10:57.072Z,23.40
2018-03-24T09:13:24.579Z,22.47
2018-03-24T09:15:52.857Z,21.77
2018-03-24T09:18:21.133Z,21.77
2018-03-24T09:20:49.410Z,20.60
2018-03-24T09:23:17.682Z,21.23
2018-03-24T09:25:46.084Z,20.93
2018-03-24T09:28:13.597Z,21.57
2018-03-24T09:30:41.112Z,20.40
2018-03-24T09:33:08.611Z,21.47
2018-03-24T09:35:36.131Z,21.13
2018-03-24T09:38:03.626Z,23.70
2018-03-24T09:40:31.223Z,23.23
2018-03-24T09:42:58.958Z,23.53
2018-03-24T09:45:26.463Z,23.33
2018-03-24T09:47:54.000Z,24.47
2018-03-24T09:50:22.271Z,23.57
2018-03-24T09:52:49.947Z,24.30
2018-03-24T09:55:17.736Z,25.30
2018-03-24T09:57:45.295Z,26.27
2018-03-24T10:00:12.806Z,27.20
2018-03-24T10:02:41.108Z,26.00
2018-03-24T10:05:08.620Z,28.53
2018-03-24T10:07:36.126Z,26.97
2018-03-24T10:10:03.642Z,27.07
2018-03-24T10:12:31.187Z,27.57
2018-03-24T10:14:58.818Z,25.70
2018-03-24T10:17:26.360Z,25.67
2018-03-24T10:19:53.872Z,24.97
2018-03-24T10:22:48.120Z,27.30
2018-03-24T10:25:15.649Z,25.33
2018-03-24T10:27:43.947Z,25.93
2018-03-24T10:30:11.472Z,28.13
2018-03-24T10:32:38.982Z,26.23
2018-03-24T10:35:08.271Z,25.80
2018-03-24T10:37:41.463Z,26.40
2018-03-24T10:40:08.986Z,26.30
2018-03-24T10:42:37.271Z,26.17
2018-03-24T10:45:05.555Z,25.13
2018-03-24T10:47:33.051Z,24.47
2018-03-24T10:50:01.319Z,24.53
2018-03-24T10:52:28.878Z,25.07
2018-03-24T10:54:56.407Z,24.77
2018-03-24T10:57:23.902Z,23.13
2018-03-24T10:59:54.036Z,24.07
2018-03-24T11:02:23.056Z,24.27
2018-03-24T11:04:51.324Z,23.00
2018-03-24T11:07:19.612Z,23.53
2018-03-24T11:09:47.912Z,23.20
2018-03-24T11:12:15.428Z,23.37
2018-03-24T11:14:42.935Z,22.33
2018-03-24T11:17:11.330Z,21.47
2018-03-24T11:19:38.850Z,21.57
2018-03-24T11:22:06.439Z,22.93
2018-03-24T11:24:33.943Z,22.67
2018-03-24T11:27:01.660Z,22.90
2018-03-24T11:29:29.172Z,23.23
2018-03-24T11:31:56.696Z,19.50
2018-03-24T11:34:24.199Z,19.97
2018-03-24T11:36:52.474Z,19.57
2018-03-24T11:39:20.746Z,21.57
2018-03-24T11:41:49.010Z,20.67
2018-03-24T11:44:16.528Z,21.13
2018-03-24T11:46:44.052Z,21.07
2018-03-24T11:49:11.726Z,21.60
2018-03-24T11:51:39.269Z,21.70
2018-03-24T11:54:06.791Z,22.57
2018-03-24T11:56:34.321Z,21.87
2018-03-24T11:59:01.943Z,21.90
2018-03-24T12:01:29.466Z,21.67
2018-03-24T12:03:56.973Z,22.63
2018-03-24T12:06:24.498Z,23.10
2018-03-24T12:08:52.078Z,21.90
2018-03-24T12:11:19.601Z,23.40
2018-03-24T12:13:48.631Z,22.87
2018-03-24T12:16:16.927Z,22.50
2018-03-24T12:18:44.439Z,20.83
2018-03-24T12:21:11.968Z,19.40
2018-03-24T12:23:39.484Z,19.57
2018-03-24T12:26:07.038Z,21.70
2018-03-24T12:28:34.558Z,21.27
2018-03-24T12:31:02.234Z,21.03
2018-03-24T12:33:29.803Z,20.37
2018-03-24T12:35:57.301Z,20.80
2018-03-24T12:38:24.814Z,19.73
2018-03-24T12:40:52.344Z,17.60
2018-03-24T12:43:20.014Z,18.77
2018-03-24T12:45:47.527Z,19.90
2018-03-24T12:48:15.044Z,18.70
2018-03-24T12:50:43.343Z,17.23
2018-03-24T12:53:10.861Z,18.83
2018-03-24T12:55:38.377Z,18.60
2018-03-24T12:58:05.924Z,18.47
2018-03-24T13:00:33.449Z,18.33
2018-03-24T13:03:01.739Z,17.90
2018-03-24T13:05:30.023Z,19.30
2018-03-24T13:07:58.312Z,19.27
2018-03-24T13:10:25.823Z,18.70
2018-03-24T13:12:53.347Z,19.03
2018-03-24T13:15:20.851Z,19.30
2018-03-24T13:17:48.356Z,20.03
2018-03-24T13:20:15.880Z,20.97
2018-03-24T13:22:43.646Z,21.43
2018-03-24T13:25:11.936Z,19.37
2018-03-24T13:27:39.499Z,21.03
2018-03-24T13:30:07.019Z,20.80
2018-03-24T13:32:34.633Z,19.97
2018-03-24T13:35:02.184Z,23.80
2018-03-24T13:37:29.724Z,20.83
2018-03-24T13:39:57.252Z,21.30
2018-03-24T13:42:24.777Z,20.50
2018-03-24T13:44:52.284Z,20.77
2018-03-24T13:47:19.834Z,20.57
2018-03-24T13:49:47.515Z,19.93
2018-03-24T13:52:15.791Z,20.93
2018-03-24T13:54:44.069Z,20.20
2018-03-24T13:57:12.374Z,19.30
2018-03-24T13:59:39.879Z,18.97
2018-03-24T14:02:07.401Z,20.47
2018-03-24T14:04:34.921Z,19.90
2018-03-24T14:07:03.198Z,22.93
2018-03-24T14:09:31.529Z,22.60
2018-03-24T14:11:59.163Z,21.07
2018-03-24T14:14:26.678Z,21.73
2018-03-24T14:16:54.188Z,21.43
2018-03-24T14:19:21.726Z,20.73
2018-03-24T14:21:49.241Z,20.87
2018-03-24T14:24:16.795Z,20.83
2018-03-24T14:26:44.304Z,21.60
2018-03-24T14:29:11.832Z,20.97
2018-03-24T14:31:39.381Z,21.80
2018-03-24T14:34:06.904Z,20.93
2018-03-24T14:36:34.429Z,20.17
2018-03-24T14:39:01.935Z,20.63
2018-03-24T14:41:29.455Z,22.13
2018-03-24T14:43:56.984Z,20.90
2018-03-24T14:46:24.487Z,19.93
2018-03-24T14:48:51.998Z,19.93
2018-03-24T14:51:20.289Z,20.50
2018-03-24T14:53:48.560Z,20.30
2018-03-24T14:56:16.845Z,21.30
2018-03-24T14:58:44.365Z,20.67
2018-03-24T15:01:11.876Z,20.63
2018-03-24T15:03:39.405Z,20.63
2018-03-24T15:06:07.878Z,20.60
2018-03-24T15:08:36.183Z,19.50
2018-03-24T15:11:03.697Z,19.33
2018-03-24T15:13:31.219Z,19.77
2018-03-24T15:15:58.791Z,19.17
2018-03-24T15:18:26.300Z,19.70
2018-03-24T15:20:53.811Z,18.97
2018-03-24T15:23:21.450Z,20.33
2018-03-24T15:25:48.971Z,20.27
2018-03-24T15:28:17.260Z,21.43
2018-03-24T15:30:56.677Z,21.03
2018-03-24T15:33:35.948Z,21.97
2018-03-24T15:36:15.345Z,21.37
2018-03-24T15:38:42.862Z,23.17
2018-03-24T15:41:10.376Z,20.83
2018-03-24T15:43:38.780Z,22.73
2018-03-24T15:46:06.280Z,21.80
2018-03-24T15:48:33.800Z,21.60
2018-03-24T15:51:01.321Z,22.13
2018-03-24T15:53:28.882Z,22.23
2018-03-24T15:55:57.169Z,21.03
2018-03-24T15:58:24.671Z,22.77
2018-03-24T16:00:52.188Z,21.37
2018-03-24T16:03:19.702Z,21.20
2018-03-24T16:05:47.201Z,21.30
2018-03-24T16:08:15.498Z,21.53
2018-03-24T16:10:42.999Z,21.63
2018-03-24T16:13:10.612Z,22.10
2018-03-24T16:15:38.131Z,22.87
2018-03-24T16:18:05.717Z,22.73
2018-03-24T16:20:33.236Z,23.50
2018-03-24T16:23:00.751Z,22.83
2018-03-24T16:25:28.452Z,22.67
2018-03-24T16:27:56.016Z,23.37
2018-03-24T16:30:25.035Z,22.67
2018-03-24T16:32:53.308Z,23.03
2018-03-24T16:35:21.657Z,22.40
2018-03-24T16:37:49.251Z,25.87
2018-03-24T16:40:17.639Z,22.83
2018-03-24T16:42:45.163Z,22.43
2018-03-24T16:45:12.743Z,20.93
2018-03-24T16:47:40.271Z,22.13
2018-03-24T16:50:07.786Z,22.20
2018-03-24T16:52:35.309Z,21.03
2018-03-24T16:55:03.014Z,22.60
2018-03-24T16:57:30.537Z,22.10
2018-03-24T16:59:59.703Z,21.07
2018-03-24T17:02:27.207Z,21.43
2018-03-24T17:04:54.721Z,21.47
2018-03-24T17:07:22.219Z,28.60
2018-03-24T17:09:49.752Z,34.07
2018-03-24T17:12:17.286Z,27.00
2018-03-24T17:14:44.821Z,23.67
2018-03-24T17:17:12.346Z,21.73
2018-03-24T17:19:39.873Z,22.07
2018-03-24T17:22:07.401Z,20.57
2018-03-24T17:24:34.905Z,21.50
2018-03-24T17:27:03.183Z,20.70
2018-03-24T17:29:30.701Z,23.33
2018-03-24T17:31:58.223Z,23.53
2018-03-24T17:34:25.769Z,23.13
2018-03-24T17:36:53.328Z,28.50
2018-03-24T17:39:21.636Z,26.30
2018-03-24T17:41:49.193Z,25.53
2018-03-24T17:44:16.855Z,25.30
2018-03-24T17:46:44.374Z,24.07
2018-03-24T17:49:12.680Z,23.47
2018-03-24T17:51:40.200Z,23.87
2018-03-24T17:54:07.713Z,23.27
2018-03-24T17:56:35.273Z,24.20
2018-03-24T17:59:02.831Z,23.57
2018-03-24T18:01:30.350Z,23.33
2018-03-24T18:03:58.741Z,22.83
2018-03-24T18:06:26.263Z,22.33
2018-03-24T18:08:53.773Z,21.83
2018-03-24T18:11:21.316Z,22.20
2018-03-24T18:13:48.863Z,23.13
2018-03-24T18:16:17.199Z,23.07
2018-03-24T18:18:44.712Z,25.10
2018-03-24T18:21:12.225Z,22.77
2018-03-24T18:23:39.758Z,21.57
2018-03-24T18:26:07.289Z,20.97
2018-03-24T18:28:34.815Z,22.57
2018-03-24T18:31:03.106Z,32.37
2018-03-24T18:33:31.391Z,29.10
2018-03-24T18:35:58.955Z,24.83
2018-03-24T18:38:26.484Z,20.50
2018-03-24T18:40:54.798Z,20.37
2018-03-24T18:43:22.371Z,19.87
2018-03-24T18:45:49.962Z,19.90
2018-03-24T18:48:17.501Z,19.63
2018-03-24T18:50:45.095Z,20.60
2018-03-24T18:53:12.709Z,21.00
2018-03-24T18:55:40.248Z,19.87
2018-03-24T18:58:07.769Z,20.37
2018-03-24T19:00:35.580Z,22.63
2018-03-24T19:03:03.185Z,20.97
2018-03-24T19:05:30.712Z,20.30
2018-03-24T19:07:58.258Z,19.63
2018-03-24T19:10:25.909Z,19.77
2018-03-24T19:12:53.451Z,19.47
2018-03-24T19:15:21.008Z,19.23
2018-03-24T19:17:49.493Z,19.57
2018-03-24T19:20:17.038Z,18.63
2018-03-24T19:22:45.333Z,19.07
2018-03-24T19:25:12.864Z,19.97
2018-03-24T19:27:40.400Z,18.67
2018-03-24T19:30:08.031Z,19.27
2018-03-24T19:32:35.564Z,18.03
2018-03-24T19:35:03.087Z,18.80
2018-03-24T19:37:30.634Z,19.67
2018-03-24T19:39:58.357Z,18.57
2018-03-24T19:42:25.887Z,27.50
2018-03-24T19:44:54.203Z,29.80
2018-03-24T19:47:21.732Z,23.00
2018-03-24T19:49:49.478Z,20.37
2018-03-24T19:52:17.808Z,20.03
2018-03-24T19:54:45.564Z,19.77
2018-03-24T19:57:13.102Z,19.37
2018-03-24T19:59:41.413Z,20.23
2018-03-24T20:02:08.965Z,20.77
2018-03-24T20:04:36.525Z,20.63
2018-03-24T20:07:04.105Z,20.90
2018-03-24T20:09:31.665Z,21.80
2018-03-24T20:11:59.314Z,22.53
2018-03-24T20:14:26.863Z,21.43
2018-03-24T20:16:54.386Z,22.77
2018-03-24T20:19:22.703Z,22.67
2018-03-24T20:21:51.069Z,21.20
2018-03-24T20:24:18.594Z,20.60
2018-03-24T20:26:46.917Z,20.70
2018-03-24T20:29:15.141Z,20.63
2018-03-24T20:31:42.857Z,21.00
2018-03-24T20:34:10.384Z,21.23
2018-03-24T20:36:37.943Z,19.60
2018-03-24T20:39:06.257Z,19.47
2018-03-24T20:41:33.818Z,19.10
2018-03-24T20:44:01.368Z,17.97
2018-03-24T20:46:28.925Z,20.07
2018-03-24T20:48:56.475Z,20.13
2018-03-24T20:51:24.012Z,18.77
2018-03-24T20:53:51.584Z,20.07
2018-03-24T20:56:19.131Z,19.27
2018-03-24T20:58:46.721Z,20.23
2018-03-24T21:01:14.283Z,19.83
2018-03-24T21:03:41.829Z,20.47
2018-03-24T21:06:09.380Z,20.17
2018-03-24T21:08:37.076Z,20.60
2018-03-24T21:11:04.655Z,35.13
2018-03-24T21:13:32.187Z,28.87
2018-03-24T21:15:59.809Z,23.10
2018-03-24T21:18:27.390Z,19.97
2018-03-24T21:20:54.944Z,20.90
2018-03-24T21:23:22.478Z,21.40
2018-03-24T21:25:50.764Z,21.47
2018-03-24T21:28:18.299Z,21.40
2018-03-24T21:30:45.884Z,21.57
2018-03-24T21:33:13.503Z,20.80
2018-03-24T21:35:41.038Z,19.43
2018-03-24T21:38:08.672Z,21.57
2018-03-24T21:40:36.237Z,20.33
2018-03-24T21:43:03.778Z,20.83
2018-03-24T21:45:31.323Z,21.07
2018-03-24T21:47:58.929Z,21.97
2018-03-24T21:50:26.486Z,23.23
2018-03-24T21:52:54.020Z,23.27
2018-03-24T21:55:21.538Z,23.70
2018-03-24T21:57:49.071Z,22.83
2018-03-24T22:00:16.595Z,23.90
2018-03-24T22:02:44.112Z,22.83
2018-03-24T22:05:11.812Z,26.80
2018-03-24T22:07:39.406Z,30.13
2018-03-24T22:10:07.048Z,39.17
2018-03-24T22:12:34.628Z,44.73
2018-03-24T22:15:02.166Z,41.37
2018-03-24T22:17:29.683Z,33.03
2018-03-24T22:19:57.305Z,32.80
2018-03-24T22:22:24.840Z,35.47
2018-03-24T22:24:52.394Z,38.57
2018-03-24T22:27:19.912Z,37.63
2018-03-24T22:29:47.465Z,36.47
2018-03-24T22:32:15.074Z,30.03
2018-03-24T22:34:42.596Z,29.17
2018-03-24T22:37:11.002Z,26.40
2018-03-24T22:39:38.591Z,26.07
2018-03-24T22:42:07.199Z,25.13
2018-03-24T22:44:34.730Z,22.63
2018-03-24T22:47:02.354Z,22.97
2018-03-24T22:49:29.834Z,21.80
2018-03-24T22:51:57.363Z,22.27
2018-03-24T22:54:24.884Z,23.30
2018-03-24T22:56:52.423Z,22.17
2018-03-24T22:59:19.931Z,24.23
2018-03-24T23:01:47.453Z,21.97
2018-03-24T23:04:15.081Z,21.03
2018-03-24T23:06:42.622Z,22.30
2018-03-24T23:09:10.904Z,21.27
2018-03-24T23:11:38.493Z,20.27
2018-03-24T23:14:06.016Z,20.73
2018-03-24T23:16:34.328Z,21.10
2018-03-24T23:19:02.782Z,22.00
2018-03-24T23:21:30.303Z,22.30
2018-03-24T23:23:57.812Z,22.60
2018-03-24T23:26:25.351Z,22.63
2018-03-24T23:28:53.635Z,23.50
2018-03-24T23:31:21.148Z,22.13
2018-03-24T23:33:48.795Z,22.63
2018-03-24T23:36:16.400Z,20.90
2018-03-24T23:38:43.923Z,22.87
2018-03-24T23:41:13.082Z,22.07
2018-03-24T23:43:40.603Z,22.93
2018-03-24T23:46:08.878Z,22.13
2018-03-24T23:48:37.156Z,22.93
2018-03-24T23:51:05.466Z,22.27
2018-03-24T23:53:33.025Z,22.53
2018-03-24T23:56:01.376Z,21.67
2018-03-24T23:58:29.662Z,21.80
